sensor_id;sensor_type;location;lat;lon;timestamp;P1;durP1;ratioP1;P2;durP2;ratioP2
55015;SDS011;40919;43.236;21.590;2023-07-16T00:01:40;16.85;;;10.02;;
55015;SDS011;40919;43.236;21.590;2023-07-16T00:04:06;12.95;;;9.23;;
55015;SDS011;40919;43.236;21.590;2023-07-16T00:06:32;13.98;;;9.35;;
55015;SDS011;40919;43.236;21.590;2023-07-16T00:08:58;13.43;;;9.63;;
55015;SDS011;40919;43.236;21.590;2023-07-16T00:11:24;14.18;;;9.55;;
55015;SDS011;40919;43.236;21.590;2023-07-16T00:13:50;16.33;;;9.45;;
55015;SDS011;40919;43.236;21.590;2023-07-16T00:16:16;11.02;;;9.18;;
55015;SDS011;40919;43.236;21.590;2023-07-16T00:18:44;12.20;;;8.88;;
55015;SDS011;40919;43.236;21.590;2023-07-16T00:21:10;12.85;;;10.18;;
55015;SDS011;40919;43.236;21.590;2023-07-16T00:23:36;12.60;;;10.40;;
55015;SDS011;40919;43.236;21.590;2023-07-16T00:26:02;13.98;;;9.95;;
55015;SDS011;40919;43.236;21.590;2023-07-16T00:28:28;13.40;;;9.90;;
55015;SDS011;40919;43.236;21.590;2023-07-16T00:30:54;14.05;;;10.15;;
55015;SDS011;40919;43.236;21.590;2023-07-16T00:33:20;13.73;;;9.52;;
55015;SDS011;40919;43.236;21.590;2023-07-16T00:35:47;15.50;;;11.00;;
55015;SDS011;40919;43.236;21.590;2023-07-16T00:38:17;12.98;;;10.63;;
55015;SDS011;40919;43.236;21.590;2023-07-16T00:40:43;16.70;;;11.02;;
55015;SDS011;40919;43.236;21.590;2023-07-16T00:43:09;13.73;;;10.63;;
55015;SDS011;40919;43.236;21.590;2023-07-16T00:45:35;14.98;;;10.77;;
55015;SDS011;40919;43.236;21.590;2023-07-16T00:48:03;15.85;;;11.40;;
55015;SDS011;40919;43.236;21.590;2023-07-16T00:50:31;11.50;;;9.82;;
55015;SDS011;40919;43.236;21.590;2023-07-16T00:53:02;13.10;;;9.60;;
55015;SDS011;40919;43.236;21.590;2023-07-16T00:55:31;17.35;;;10.63;;
55015;SDS011;40919;43.236;21.590;2023-07-16T00:58:00;14.75;;;10.68;;
55015;SDS011;40919;43.236;21.590;2023-07-16T01:00:30;12.88;;;10.25;;
55015;SDS011;40919;43.236;21.590;2023-07-16T01:02:56;14.60;;;10.05;;
55015;SDS011;40919;43.236;21.590;2023-07-16T01:05:22;16.38;;;10.32;;
55015;SDS011;40919;43.236;21.590;2023-07-16T01:07:58;12.85;;;10.88;;
55015;SDS011;40919;43.236;21.590;2023-07-16T01:10:27;15.45;;;10.57;;
55015;SDS011;40919;43.236;21.590;2023-07-16T01:12:54;17.27;;;10.15;;
55015;SDS011;40919;43.236;21.590;2023-07-16T01:15:21;15.95;;;10.10;;
55015;SDS011;40919;43.236;21.590;2023-07-16T01:17:47;10.35;;;9.18;;
55015;SDS011;40919;43.236;21.590;2023-07-16T01:20:13;12.35;;;9.40;;
55015;SDS011;40919;43.236;21.590;2023-07-16T01:22:51;11.35;;;8.23;;
55015;SDS011;40919;43.236;21.590;2023-07-16T01:25:22;12.98;;;9.32;;
55015;SDS011;40919;43.236;21.590;2023-07-16T01:30:39;20.17;;;9.65;;
55015;SDS011;40919;43.236;21.590;2023-07-16T01:33:09;12.25;;;9.02;;
55015;SDS011;40919;43.236;21.590;2023-07-16T01:35:38;13.30;;;8.93;;
55015;SDS011;40919;43.236;21.590;2023-07-16T01:38:05;10.35;;;8.25;;
55015;SDS011;40919;43.236;21.590;2023-07-16T01:40:33;18.92;;;9.73;;
55015;SDS011;40919;43.236;21.590;2023-07-16T01:42:59;11.45;;;9.05;;
55015;SDS011;40919;43.236;21.590;2023-07-16T01:45:24;13.13;;;8.93;;
55015;SDS011;40919;43.236;21.590;2023-07-16T01:50:38;11.70;;;9.05;;
55015;SDS011;40919;43.236;21.590;2023-07-16T01:53:03;11.18;;;8.38;;
55015;SDS011;40919;43.236;21.590;2023-07-16T01:55:29;13.48;;;8.80;;
55015;SDS011;40919;43.236;21.590;2023-07-16T01:57:55;18.08;;;10.02;;
55015;SDS011;40919;43.236;21.590;2023-07-16T02:00:21;13.10;;;9.90;;
55015;SDS011;40919;43.236;21.590;2023-07-16T02:02:46;16.15;;;9.52;;
55015;SDS011;40919;43.236;21.590;2023-07-16T02:05:12;12.98;;;9.65;;
55015;SDS011;40919;43.236;21.590;2023-07-16T02:07:39;10.90;;;8.73;;
55015;SDS011;40919;43.236;21.590;2023-07-16T02:10:05;10.35;;;8.70;;
55015;SDS011;40919;43.236;21.590;2023-07-16T02:12:31;12.85;;;10.25;;
55015;SDS011;40919;43.236;21.590;2023-07-16T02:14:57;15.13;;;10.75;;
55015;SDS011;40919;43.236;21.590;2023-07-16T02:17:23;15.68;;;9.75;;
55015;SDS011;40919;43.236;21.590;2023-07-16T02:19:49;12.00;;;9.35;;
55015;SDS011;40919;43.236;21.590;2023-07-16T02:22:14;15.00;;;9.70;;
55015;SDS011;40919;43.236;21.590;2023-07-16T02:24:40;13.75;;;9.93;;
55015;SDS011;40919;43.236;21.590;2023-07-16T02:27:06;13.95;;;9.15;;
55015;SDS011;40919;43.236;21.590;2023-07-16T02:29:32;12.77;;;9.38;;
55015;SDS011;40919;43.236;21.590;2023-07-16T02:31:58;13.38;;;9.20;;
55015;SDS011;40919;43.236;21.590;2023-07-16T02:34:24;13.68;;;9.52;;
55015;SDS011;40919;43.236;21.590;2023-07-16T02:36:50;13.48;;;9.20;;
55015;SDS011;40919;43.236;21.590;2023-07-16T02:39:15;13.85;;;10.13;;
55015;SDS011;40919;43.236;21.590;2023-07-16T02:41:41;15.60;;;9.38;;
55015;SDS011;40919;43.236;21.590;2023-07-16T02:44:07;14.65;;;9.45;;
55015;SDS011;40919;43.236;21.590;2023-07-16T02:46:34;13.13;;;8.60;;
55015;SDS011;40919;43.236;21.590;2023-07-16T02:49:00;13.20;;;9.25;;
55015;SDS011;40919;43.236;21.590;2023-07-16T02:51:26;14.60;;;9.63;;
55015;SDS011;40919;43.236;21.590;2023-07-16T02:53:52;10.05;;;8.95;;
55015;SDS011;40919;43.236;21.590;2023-07-16T02:56:18;11.00;;;9.15;;
55015;SDS011;40919;43.236;21.590;2023-07-16T02:58:44;11.05;;;9.23;;
55015;SDS011;40919;43.236;21.590;2023-07-16T03:01:10;11.82;;;9.23;;
55015;SDS011;40919;43.236;21.590;2023-07-16T03:03:36;11.73;;;9.40;;
55015;SDS011;40919;43.236;21.590;2023-07-16T03:06:02;13.27;;;9.23;;
55015;SDS011;40919;43.236;21.590;2023-07-16T03:08:28;10.35;;;8.75;;
55015;SDS011;40919;43.236;21.590;2023-07-16T03:10:55;11.70;;;8.38;;
55015;SDS011;40919;43.236;21.590;2023-07-16T03:13:21;12.75;;;9.27;;
55015;SDS011;40919;43.236;21.590;2023-07-16T03:15:47;11.55;;;9.07;;
55015;SDS011;40919;43.236;21.590;2023-07-16T03:18:13;12.57;;;9.45;;
55015;SDS011;40919;43.236;21.590;2023-07-16T03:20:39;11.35;;;9.90;;
55015;SDS011;40919;43.236;21.590;2023-07-16T03:23:05;15.52;;;10.15;;
55015;SDS011;40919;43.236;21.590;2023-07-16T03:25:30;15.60;;;9.43;;
55015;SDS011;40919;43.236;21.590;2023-07-16T03:27:56;11.90;;;9.93;;
55015;SDS011;40919;43.236;21.590;2023-07-16T03:30:22;13.88;;;9.85;;
55015;SDS011;40919;43.236;21.590;2023-07-16T03:32:48;13.43;;;9.38;;
55015;SDS011;40919;43.236;21.590;2023-07-16T03:35:14;11.25;;;9.07;;
55015;SDS011;40919;43.236;21.590;2023-07-16T03:37:39;12.20;;;10.27;;
55015;SDS011;40919;43.236;21.590;2023-07-16T03:40:15;15.27;;;9.60;;
55015;SDS011;40919;43.236;21.590;2023-07-16T03:42:42;12.27;;;10.35;;
55015;SDS011;40919;43.236;21.590;2023-07-16T03:45:09;12.48;;;9.57;;
55015;SDS011;40919;43.236;21.590;2023-07-16T03:47:35;11.63;;;9.95;;
55015;SDS011;40919;43.236;21.590;2023-07-16T03:50:01;17.20;;;10.13;;
55015;SDS011;40919;43.236;21.590;2023-07-16T03:52:28;14.77;;;8.85;;
55015;SDS011;40919;43.236;21.590;2023-07-16T03:54:54;13.10;;;9.48;;
55015;SDS011;40919;43.236;21.590;2023-07-16T03:57:20;12.57;;;9.85;;
55015;SDS011;40919;43.236;21.590;2023-07-16T03:59:46;14.35;;;10.45;;
55015;SDS011;40919;43.236;21.590;2023-07-16T04:02:12;15.27;;;9.65;;
55015;SDS011;40919;43.236;21.590;2023-07-16T04:04:37;13.48;;;9.95;;
55015;SDS011;40919;43.236;21.590;2023-07-16T04:07:03;12.18;;;9.93;;
55015;SDS011;40919;43.236;21.590;2023-07-16T04:09:29;14.75;;;10.57;;
55015;SDS011;40919;43.236;21.590;2023-07-16T04:11:55;12.02;;;10.50;;
55015;SDS011;40919;43.236;21.590;2023-07-16T04:14:21;10.90;;;9.60;;
55015;SDS011;40919;43.236;21.590;2023-07-16T04:16:47;11.95;;;10.18;;
55015;SDS011;40919;43.236;21.590;2023-07-16T04:19:12;15.95;;;10.73;;
55015;SDS011;40919;43.236;21.590;2023-07-16T04:21:38;14.38;;;10.23;;
55015;SDS011;40919;43.236;21.590;2023-07-16T04:24:04;13.63;;;10.95;;
55015;SDS011;40919;43.236;21.590;2023-07-16T04:26:31;16.42;;;10.85;;
55015;SDS011;40919;43.236;21.590;2023-07-16T04:28:57;16.13;;;11.27;;
55015;SDS011;40919;43.236;21.590;2023-07-16T04:31:23;12.57;;;9.93;;
55015;SDS011;40919;43.236;21.590;2023-07-16T04:33:49;14.32;;;10.20;;
55015;SDS011;40919;43.236;21.590;2023-07-16T04:36:15;11.15;;;9.32;;
55015;SDS011;40919;43.236;21.590;2023-07-16T04:38:41;15.02;;;10.07;;
55015;SDS011;40919;43.236;21.590;2023-07-16T04:41:07;12.65;;;9.75;;
55015;SDS011;40919;43.236;21.590;2023-07-16T04:43:33;14.15;;;9.93;;
55015;SDS011;40919;43.236;21.590;2023-07-16T04:45:59;14.00;;;10.10;;
55015;SDS011;40919;43.236;21.590;2023-07-16T04:48:25;11.68;;;10.13;;
55015;SDS011;40919;43.236;21.590;2023-07-16T04:50:51;15.07;;;10.52;;
55015;SDS011;40919;43.236;21.590;2023-07-16T04:53:17;13.02;;;10.50;;
55015;SDS011;40919;43.236;21.590;2023-07-16T04:55:43;11.70;;;9.52;;
55015;SDS011;40919;43.236;21.590;2023-07-16T04:58:11;13.98;;;9.27;;
55015;SDS011;40919;43.236;21.590;2023-07-16T05:00:37;15.45;;;10.02;;
55015;SDS011;40919;43.236;21.590;2023-07-16T05:03:03;13.50;;;9.82;;
55015;SDS011;40919;43.236;21.590;2023-07-16T05:05:29;14.52;;;10.02;;
55015;SDS011;40919;43.236;21.590;2023-07-16T05:07:55;13.27;;;9.90;;
55015;SDS011;40919;43.236;21.590;2023-07-16T05:10:20;14.10;;;10.35;;
55015;SDS011;40919;43.236;21.590;2023-07-16T05:12:46;14.65;;;10.32;;
55015;SDS011;40919;43.236;21.590;2023-07-16T05:15:12;19.15;;;11.57;;
55015;SDS011;40919;43.236;21.590;2023-07-16T05:17:38;12.27;;;10.73;;
55015;SDS011;40919;43.236;21.590;2023-07-16T05:20:04;15.18;;;11.20;;
55015;SDS011;40919;43.236;21.590;2023-07-16T05:22:31;15.52;;;11.95;;
55015;SDS011;40919;43.236;21.590;2023-07-16T05:24:57;16.20;;;11.27;;
55015;SDS011;40919;43.236;21.590;2023-07-16T05:27:23;12.55;;;10.82;;
55015;SDS011;40919;43.236;21.590;2023-07-16T05:29:49;11.82;;;10.63;;
55015;SDS011;40919;43.236;21.590;2023-07-16T05:32:14;13.38;;;10.23;;
55015;SDS011;40919;43.236;21.590;2023-07-16T05:34:40;12.05;;;10.35;;
55015;SDS011;40919;43.236;21.590;2023-07-16T05:37:06;13.43;;;10.55;;
55015;SDS011;40919;43.236;21.590;2023-07-16T05:39:32;16.75;;;10.55;;
55015;SDS011;40919;43.236;21.590;2023-07-16T05:41:58;15.57;;;10.55;;
55015;SDS011;40919;43.236;21.590;2023-07-16T05:44:26;17.17;;;12.57;;
55015;SDS011;40919;43.236;21.590;2023-07-16T05:46:51;15.05;;;11.70;;
55015;SDS011;40919;43.236;21.590;2023-07-16T05:49:17;17.30;;;11.52;;
55015;SDS011;40919;43.236;21.590;2023-07-16T05:51:43;13.27;;;11.93;;
55015;SDS011;40919;43.236;21.590;2023-07-16T05:54:09;17.95;;;13.32;;
55015;SDS011;40919;43.236;21.590;2023-07-16T05:56:35;20.70;;;12.85;;
55015;SDS011;40919;43.236;21.590;2023-07-16T05:59:00;15.30;;;11.90;;
55015;SDS011;40919;43.236;21.590;2023-07-16T06:01:26;16.10;;;12.13;;
55015;SDS011;40919;43.236;21.590;2023-07-16T06:03:52;13.45;;;11.80;;
55015;SDS011;40919;43.236;21.590;2023-07-16T06:06:19;14.40;;;10.75;;
55015;SDS011;40919;43.236;21.590;2023-07-16T06:08:45;15.38;;;10.95;;
55015;SDS011;40919;43.236;21.590;2023-07-16T06:11:11;14.23;;;10.98;;
55015;SDS011;40919;43.236;21.590;2023-07-16T06:13:37;13.60;;;11.45;;
55015;SDS011;40919;43.236;21.590;2023-07-16T06:16:03;23.20;;;11.40;;
55015;SDS011;40919;43.236;21.590;2023-07-16T06:18:29;12.82;;;10.27;;
55015;SDS011;40919;43.236;21.590;2023-07-16T06:20:55;14.40;;;10.45;;
55015;SDS011;40919;43.236;21.590;2023-07-16T06:23:21;12.85;;;10.48;;
55015;SDS011;40919;43.236;21.590;2023-07-16T06:25:46;11.90;;;10.40;;
55015;SDS011;40919;43.236;21.590;2023-07-16T06:28:13;15.00;;;10.32;;
55015;SDS011;40919;43.236;21.590;2023-07-16T06:30:40;14.40;;;10.85;;
55015;SDS011;40919;43.236;21.590;2023-07-16T06:33:05;16.42;;;10.70;;
55015;SDS011;40919;43.236;21.590;2023-07-16T06:35:32;12.65;;;9.80;;
55015;SDS011;40919;43.236;21.590;2023-07-16T06:37:58;20.58;;;11.90;;
55015;SDS011;40919;43.236;21.590;2023-07-16T06:40:24;11.80;;;9.68;;
55015;SDS011;40919;43.236;21.590;2023-07-16T06:42:50;13.63;;;10.13;;
55015;SDS011;40919;43.236;21.590;2023-07-16T06:45:17;12.30;;;10.05;;
55015;SDS011;40919;43.236;21.590;2023-07-16T06:47:43;12.15;;;9.57;;
55015;SDS011;40919;43.236;21.590;2023-07-16T06:50:09;12.88;;;9.45;;
55015;SDS011;40919;43.236;21.590;2023-07-16T06:52:35;15.32;;;9.48;;
55015;SDS011;40919;43.236;21.590;2023-07-16T06:55:00;13.30;;;8.63;;
55015;SDS011;40919;43.236;21.590;2023-07-16T06:57:26;12.13;;;9.30;;
55015;SDS011;40919;43.236;21.590;2023-07-16T06:59:52;12.73;;;9.20;;
55015;SDS011;40919;43.236;21.590;2023-07-16T07:02:18;10.50;;;8.82;;
55015;SDS011;40919;43.236;21.590;2023-07-16T07:04:45;10.98;;;8.52;;
55015;SDS011;40919;43.236;21.590;2023-07-16T07:07:10;11.98;;;10.32;;
55015;SDS011;40919;43.236;21.590;2023-07-16T07:09:36;10.68;;;8.80;;
55015;SDS011;40919;43.236;21.590;2023-07-16T07:12:02;9.65;;;8.60;;
55015;SDS011;40919;43.236;21.590;2023-07-16T07:14:28;12.48;;;8.73;;
55015;SDS011;40919;43.236;21.590;2023-07-16T07:16:54;13.15;;;9.50;;
55015;SDS011;40919;43.236;21.590;2023-07-16T07:19:20;12.30;;;8.93;;
55015;SDS011;40919;43.236;21.590;2023-07-16T07:21:46;15.93;;;9.05;;
55015;SDS011;40919;43.236;21.590;2023-07-16T07:24:12;10.95;;;9.10;;
55015;SDS011;40919;43.236;21.590;2023-07-16T07:26:38;13.05;;;10.88;;
55015;SDS011;40919;43.236;21.590;2023-07-16T07:29:03;10.93;;;9.82;;
55015;SDS011;40919;43.236;21.590;2023-07-16T07:31:29;11.45;;;10.23;;
55015;SDS011;40919;43.236;21.590;2023-07-16T07:33:55;15.50;;;10.70;;
55015;SDS011;40919;43.236;21.590;2023-07-16T07:36:22;14.23;;;9.43;;
55015;SDS011;40919;43.236;21.590;2023-07-16T07:38:48;14.82;;;10.35;;
55015;SDS011;40919;43.236;21.590;2023-07-16T07:41:14;14.27;;;9.10;;
55015;SDS011;40919;43.236;21.590;2023-07-16T07:43:40;11.98;;;9.93;;
55015;SDS011;40919;43.236;21.590;2023-07-16T07:46:05;16.50;;;10.93;;
55015;SDS011;40919;43.236;21.590;2023-07-16T07:48:31;14.93;;;11.43;;
55015;SDS011;40919;43.236;21.590;2023-07-16T07:50:57;13.23;;;9.38;;
55015;SDS011;40919;43.236;21.590;2023-07-16T07:53:23;12.10;;;10.40;;
55015;SDS011;40919;43.236;21.590;2023-07-16T07:55:49;16.98;;;9.52;;
55015;SDS011;40919;43.236;21.590;2023-07-16T07:58:15;15.68;;;10.55;;
55015;SDS011;40919;43.236;21.590;2023-07-16T08:00:40;12.50;;;9.27;;
55015;SDS011;40919;43.236;21.590;2023-07-16T08:03:06;13.02;;;10.30;;
55015;SDS011;40919;43.236;21.590;2023-07-16T08:05:32;22.30;;;14.38;;
55015;SDS011;40919;43.236;21.590;2023-07-16T08:07:59;14.25;;;11.38;;
55015;SDS011;40919;43.236;21.590;2023-07-16T08:10:24;11.60;;;9.82;;
55015;SDS011;40919;43.236;21.590;2023-07-16T08:12:50;15.63;;;12.15;;
55015;SDS011;40919;43.236;21.590;2023-07-16T08:15:17;10.32;;;9.05;;
55015;SDS011;40919;43.236;21.590;2023-07-16T08:17:43;14.75;;;9.63;;
55015;SDS011;40919;43.236;21.590;2023-07-16T08:20:10;11.95;;;9.23;;
55015;SDS011;40919;43.236;21.590;2023-07-16T08:22:37;13.27;;;9.88;;
55015;SDS011;40919;43.236;21.590;2023-07-16T08:25:03;14.43;;;9.70;;
55015;SDS011;40919;43.236;21.590;2023-07-16T08:27:30;16.23;;;10.63;;
55015;SDS011;40919;43.236;21.590;2023-07-16T08:29:56;13.75;;;9.48;;
55015;SDS011;40919;43.236;21.590;2023-07-16T08:32:22;12.82;;;9.75;;
55015;SDS011;40919;43.236;21.590;2023-07-16T08:34:48;11.90;;;8.95;;
55015;SDS011;40919;43.236;21.590;2023-07-16T08:37:14;11.57;;;8.73;;
55015;SDS011;40919;43.236;21.590;2023-07-16T08:39:40;13.65;;;9.75;;
55015;SDS011;40919;43.236;21.590;2023-07-16T08:42:06;15.75;;;9.65;;
55015;SDS011;40919;43.236;21.590;2023-07-16T08:44:38;14.93;;;9.75;;
55015;SDS011;40919;43.236;21.590;2023-07-16T08:47:05;20.85;;;10.13;;
55015;SDS011;40919;43.236;21.590;2023-07-16T08:49:31;13.50;;;9.13;;
55015;SDS011;40919;43.236;21.590;2023-07-16T08:51:59;13.70;;;10.30;;
55015;SDS011;40919;43.236;21.590;2023-07-16T08:54:27;12.38;;;9.88;;
55015;SDS011;40919;43.236;21.590;2023-07-16T08:56:53;12.93;;;8.82;;
55015;SDS011;40919;43.236;21.590;2023-07-16T08:59:18;11.80;;;9.18;;
55015;SDS011;40919;43.236;21.590;2023-07-16T09:01:47;19.15;;;9.20;;
55015;SDS011;40919;43.236;21.590;2023-07-16T09:04:14;16.20;;;9.27;;
55015;SDS011;40919;43.236;21.590;2023-07-16T09:06:41;10.13;;;8.75;;
55015;SDS011;40919;43.236;21.590;2023-07-16T09:09:07;16.65;;;9.57;;
55015;SDS011;40919;43.236;21.590;2023-07-16T09:11:34;15.88;;;10.85;;
55015;SDS011;40919;43.236;21.590;2023-07-16T09:14:03;13.00;;;9.15;;
55015;SDS011;40919;43.236;21.590;2023-07-16T09:16:32;15.30;;;9.35;;
55015;SDS011;40919;43.236;21.590;2023-07-16T09:19:20;11.48;;;8.70;;
55015;SDS011;40919;43.236;21.590;2023-07-16T09:21:49;11.02;;;9.18;;
55015;SDS011;40919;43.236;21.590;2023-07-16T09:24:16;14.32;;;9.63;;
55015;SDS011;40919;43.236;21.590;2023-07-16T09:26:50;12.93;;;10.20;;
55015;SDS011;40919;43.236;21.590;2023-07-16T09:29:20;12.55;;;9.65;;
55015;SDS011;40919;43.236;21.590;2023-07-16T09:31:59;13.90;;;10.15;;
55015;SDS011;40919;43.236;21.590;2023-07-16T09:34:27;20.60;;;9.90;;
55015;SDS011;40919;43.236;21.590;2023-07-16T09:36:54;14.07;;;9.15;;
55015;SDS011;40919;43.236;21.590;2023-07-16T09:39:21;14.70;;;11.00;;
55015;SDS011;40919;43.236;21.590;2023-07-16T09:41:48;12.65;;;10.18;;
55015;SDS011;40919;43.236;21.590;2023-07-16T09:44:15;12.18;;;9.25;;
55015;SDS011;40919;43.236;21.590;2023-07-16T09:46:41;15.05;;;9.27;;
55015;SDS011;40919;43.236;21.590;2023-07-16T09:49:08;13.00;;;9.32;;
55015;SDS011;40919;43.236;21.590;2023-07-16T09:51:35;13.68;;;8.75;;
55015;SDS011;40919;43.236;21.590;2023-07-16T09:54:02;14.68;;;10.18;;
55015;SDS011;40919;43.236;21.590;2023-07-16T09:56:36;12.48;;;9.65;;
55015;SDS011;40919;43.236;21.590;2023-07-16T09:59:05;13.95;;;9.43;;
55015;SDS011;40919;43.236;21.590;2023-07-16T10:01:36;16.33;;;8.88;;
55015;SDS011;40919;43.236;21.590;2023-07-16T10:04:12;11.95;;;9.43;;
55015;SDS011;40919;43.236;21.590;2023-07-16T10:06:52;15.00;;;8.90;;
55015;SDS011;40919;43.236;21.590;2023-07-16T10:14:39;12.48;;;9.73;;
55015;SDS011;40919;43.236;21.590;2023-07-16T10:17:06;15.90;;;11.07;;
55015;SDS011;40919;43.236;21.590;2023-07-16T10:20:17;13.07;;;9.50;;
55015;SDS011;40919;43.236;21.590;2023-07-16T10:22:38;14.45;;;9.45;;
55015;SDS011;40919;43.236;21.590;2023-07-16T10:27:44;16.92;;;9.13;;
55015;SDS011;40919;43.236;21.590;2023-07-16T10:30:11;11.20;;;8.95;;
55015;SDS011;40919;43.236;21.590;2023-07-16T10:32:37;11.02;;;8.77;;
55015;SDS011;40919;43.236;21.590;2023-07-16T10:35:04;13.05;;;8.80;;
55015;SDS011;40919;43.236;21.590;2023-07-16T10:37:31;13.68;;;9.20;;
55015;SDS011;40919;43.236;21.590;2023-07-16T10:39:58;11.25;;;8.23;;
55015;SDS011;40919;43.236;21.590;2023-07-16T10:42:25;13.80;;;9.30;;
55015;SDS011;40919;43.236;21.590;2023-07-16T10:44:52;14.85;;;8.40;;
55015;SDS011;40919;43.236;21.590;2023-07-16T10:49:51;12.10;;;8.05;;
55015;SDS011;40919;43.236;21.590;2023-07-16T10:52:17;12.23;;;9.32;;
55015;SDS011;40919;43.236;21.590;2023-07-16T10:54:43;10.65;;;8.65;;
55015;SDS011;40919;43.236;21.590;2023-07-16T10:57:10;14.05;;;8.98;;
55015;SDS011;40919;43.236;21.590;2023-07-16T10:59:40;17.25;;;9.68;;
55015;SDS011;40919;43.236;21.590;2023-07-16T11:02:10;14.65;;;8.52;;
55015;SDS011;40919;43.236;21.590;2023-07-16T11:04:40;13.70;;;8.95;;
55015;SDS011;40919;43.236;21.590;2023-07-16T11:07:07;11.10;;;8.15;;
55015;SDS011;40919;43.236;21.590;2023-07-16T11:09:43;11.07;;;8.20;;
55015;SDS011;40919;43.236;21.590;2023-07-16T11:12:13;17.27;;;8.57;;
55015;SDS011;40919;43.236;21.590;2023-07-16T11:14:44;16.47;;;9.23;;
55015;SDS011;40919;43.236;21.590;2023-07-16T11:17:14;19.13;;;8.60;;
55015;SDS011;40919;43.236;21.590;2023-07-16T11:19:40;11.85;;;7.55;;
55015;SDS011;40919;43.236;21.590;2023-07-16T11:22:10;12.63;;;9.40;;
55015;SDS011;40919;43.236;21.590;2023-07-16T11:24:40;13.43;;;8.85;;
55015;SDS011;40919;43.236;21.590;2023-07-16T11:27:34;14.95;;;8.77;;
55015;SDS011;40919;43.236;21.590;2023-07-16T11:29:59;12.88;;;8.45;;
55015;SDS011;40919;43.236;21.590;2023-07-16T11:32:26;13.07;;;8.10;;
55015;SDS011;40919;43.236;21.590;2023-07-16T11:34:56;10.10;;;8.50;;
55015;SDS011;40919;43.236;21.590;2023-07-16T11:37:26;14.85;;;9.23;;
55015;SDS011;40919;43.236;21.590;2023-07-16T11:39:57;13.82;;;9.10;;
55015;SDS011;40919;43.236;21.590;2023-07-16T11:42:33;16.77;;;9.00;;
55015;SDS011;40919;43.236;21.590;2023-07-16T11:45:03;14.43;;;8.13;;
55015;SDS011;40919;43.236;21.590;2023-07-16T11:47:30;13.00;;;8.43;;
55015;SDS011;40919;43.236;21.590;2023-07-16T11:49:57;13.80;;;9.10;;
55015;SDS011;40919;43.236;21.590;2023-07-16T11:52:27;11.15;;;8.40;;
55015;SDS011;40919;43.236;21.590;2023-07-16T11:54:57;15.40;;;9.25;;
55015;SDS011;40919;43.236;21.590;2023-07-16T11:57:28;12.38;;;7.97;;
55015;SDS011;40919;43.236;21.590;2023-07-16T11:59:54;14.27;;;8.43;;
55015;SDS011;40919;43.236;21.590;2023-07-16T12:02:21;10.98;;;8.35;;
55015;SDS011;40919;43.236;21.590;2023-07-16T12:04:47;16.05;;;8.25;;
55015;SDS011;40919;43.236;21.590;2023-07-16T12:07:13;12.75;;;7.45;;
55015;SDS011;40919;43.236;21.590;2023-07-16T12:09:39;14.60;;;8.68;;
55015;SDS011;40919;43.236;21.590;2023-07-16T12:12:05;12.52;;;8.07;;
55015;SDS011;40919;43.236;21.590;2023-07-16T12:14:31;13.07;;;8.45;;
55015;SDS011;40919;43.236;21.590;2023-07-16T12:16:58;14.35;;;8.80;;
55015;SDS011;40919;43.236;21.590;2023-07-16T12:19:24;14.23;;;9.25;;
55015;SDS011;40919;43.236;21.590;2023-07-16T12:21:50;13.65;;;9.68;;
55015;SDS011;40919;43.236;21.590;2023-07-16T12:24:16;10.63;;;8.48;;
55015;SDS011;40919;43.236;21.590;2023-07-16T12:26:42;14.55;;;8.20;;
55015;SDS011;40919;43.236;21.590;2023-07-16T12:29:08;11.50;;;8.07;;
55015;SDS011;40919;43.236;21.590;2023-07-16T12:31:34;11.45;;;8.73;;
55015;SDS011;40919;43.236;21.590;2023-07-16T12:34:00;18.77;;;8.52;;
55015;SDS011;40919;43.236;21.590;2023-07-16T12:36:29;13.48;;;7.85;;
55015;SDS011;40919;43.236;21.590;2023-07-16T12:38:55;14.73;;;8.68;;
55015;SDS011;40919;43.236;21.590;2023-07-16T12:41:21;14.52;;;8.57;;
55015;SDS011;40919;43.236;21.590;2023-07-16T12:43:47;15.98;;;8.07;;
55015;SDS011;40919;43.236;21.590;2023-07-16T12:46:13;13.80;;;8.57;;
55015;SDS011;40919;43.236;21.590;2023-07-16T12:48:39;12.60;;;7.93;;
55015;SDS011;40919;43.236;21.590;2023-07-16T12:51:05;14.60;;;8.55;;
55015;SDS011;40919;43.236;21.590;2023-07-16T12:53:31;15.75;;;8.20;;
55015;SDS011;40919;43.236;21.590;2023-07-16T12:55:57;15.10;;;8.38;;
55015;SDS011;40919;43.236;21.590;2023-07-16T12:58:23;15.02;;;9.10;;
55015;SDS011;40919;43.236;21.590;2023-07-16T13:00:50;13.45;;;9.35;;
55015;SDS011;40919;43.236;21.590;2023-07-16T13:03:16;16.60;;;9.70;;
55015;SDS011;40919;43.236;21.590;2023-07-16T13:05:43;14.95;;;8.70;;
55015;SDS011;40919;43.236;21.590;2023-07-16T13:08:10;11.68;;;7.50;;
55015;SDS011;40919;43.236;21.590;2023-07-16T13:10:36;15.38;;;8.32;;
55015;SDS011;40919;43.236;21.590;2023-07-16T13:13:02;11.88;;;8.23;;
55015;SDS011;40919;43.236;21.590;2023-07-16T13:15:31;13.95;;;8.38;;
55015;SDS011;40919;43.236;21.590;2023-07-16T13:17:58;12.00;;;8.25;;
55015;SDS011;40919;43.236;21.590;2023-07-16T13:20:24;16.63;;;9.52;;
55015;SDS011;40919;43.236;21.590;2023-07-16T13:22:50;15.93;;;9.20;;
55015;SDS011;40919;43.236;21.590;2023-07-16T13:25:16;12.70;;;8.10;;
55015;SDS011;40919;43.236;21.590;2023-07-16T13:27:42;11.70;;;7.72;;
55015;SDS011;40919;43.236;21.590;2023-07-16T13:30:08;15.45;;;7.80;;
55015;SDS011;40919;43.236;21.590;2023-07-16T13:32:34;12.40;;;7.25;;
55015;SDS011;40919;43.236;21.590;2023-07-16T13:35:00;15.25;;;8.20;;
55015;SDS011;40919;43.236;21.590;2023-07-16T13:37:26;13.77;;;7.40;;
55015;SDS011;40919;43.236;21.590;2023-07-16T13:39:51;12.65;;;8.23;;
55015;SDS011;40919;43.236;21.590;2023-07-16T13:42:18;12.02;;;8.18;;
55015;SDS011;40919;43.236;21.590;2023-07-16T13:44:44;12.40;;;8.57;;
55015;SDS011;40919;43.236;21.590;2023-07-16T13:47:10;17.27;;;7.65;;
55015;SDS011;40919;43.236;21.590;2023-07-16T13:49:36;14.38;;;9.25;;
55015;SDS011;40919;43.236;21.590;2023-07-16T13:52:01;14.80;;;7.70;;
55015;SDS011;40919;43.236;21.590;2023-07-16T13:54:27;11.40;;;7.72;;
55015;SDS011;40919;43.236;21.590;2023-07-16T13:56:53;17.40;;;9.73;;
55015;SDS011;40919;43.236;21.590;2023-07-16T13:59:19;13.88;;;7.72;;
55015;SDS011;40919;43.236;21.590;2023-07-16T14:01:44;13.48;;;9.70;;
55015;SDS011;40919;43.236;21.590;2023-07-16T14:04:12;12.50;;;8.40;;
55015;SDS011;40919;43.236;21.590;2023-07-16T14:06:38;18.95;;;8.98;;
55015;SDS011;40919;43.236;21.590;2023-07-16T14:09:03;19.65;;;8.13;;
55015;SDS011;40919;43.236;21.590;2023-07-16T14:11:30;14.45;;;8.02;;
55015;SDS011;40919;43.236;21.590;2023-07-16T14:13:56;15.25;;;7.88;;
55015;SDS011;40919;43.236;21.590;2023-07-16T14:16:22;11.45;;;7.18;;
55015;SDS011;40919;43.236;21.590;2023-07-16T14:18:51;12.65;;;9.07;;
55015;SDS011;40919;43.236;21.590;2023-07-16T14:23:45;14.88;;;9.13;;
55015;SDS011;40919;43.236;21.590;2023-07-16T14:26:10;12.27;;;7.70;;
55015;SDS011;40919;43.236;21.590;2023-07-16T14:28:37;11.15;;;8.05;;
55015;SDS011;40919;43.236;21.590;2023-07-16T14:31:03;13.15;;;8.43;;
55015;SDS011;40919;43.236;21.590;2023-07-16T14:33:29;12.00;;;7.95;;
55015;SDS011;40919;43.236;21.590;2023-07-16T14:35:55;18.13;;;12.88;;